sensor_id;sensor_type;location;lat;lon;timestamp;P1;durP1;ratioP1;P2;durP2;ratioP2
38901;SDS011;24661;53.566;9.910;2023-07-02T00:02:20;4.63;;;2.70;;
38901;SDS011;24661;53.566;9.910;2023-07-02T00:04:47;7.43;;;2.67;;
38901;SDS011;24661;53.566;9.910;2023-07-02T00:07:12;4.03;;;2.57;;
38901;SDS011;24661;53.566;9.910;2023-07-02T00:09:40;8.93;;;2.60;;
38901;SDS011;24661;53.566;9.910;2023-07-02T00:12:06;6.07;;;3.00;;
38901;SDS011;24661;53.566;9.910;2023-07-02T00:14:32;15.63;;;4.70;;
38901;SDS011;24661;53.566;9.910;2023-07-02T00:16:58;8.73;;;3.07;;
38901;SDS011;24661;53.566;9.910;2023-07-02T00:19:23;8.27;;;3.03;;
38901;SDS011;24661;53.566;9.910;2023-07-02T00:21:49;10.13;;;3.10;;
38901;SDS011;24661;53.566;9.910;2023-07-02T00:24:15;8.80;;;2.90;;
38901;SDS011;24661;53.566;9.910;2023-07-02T00:26:40;4.43;;;2.50;;
38901;SDS011;24661;53.566;9.910;2023-07-02T00:29:07;4.90;;;2.57;;
38901;SDS011;24661;53.566;9.910;2023-07-02T00:31:34;6.43;;;3.00;;
38901;SDS011;24661;53.566;9.910;2023-07-02T00:34:00;7.60;;;2.70;;
38901;SDS011;24661;53.566;9.910;2023-07-02T00:36:27;8.70;;;3.30;;
38901;SDS011;24661;53.566;9.910;2023-07-02T00:38:53;9.27;;;3.57;;
38901;SDS011;24661;53.566;9.910;2023-07-02T00:41:19;7.20;;;2.60;;
38901;SDS011;24661;53.566;9.910;2023-07-02T00:43:45;8.70;;;3.00;;
38901;SDS011;24661;53.566;9.910;2023-07-02T00:46:16;5.33;;;2.73;;
38901;SDS011;24661;53.566;9.910;2023-07-02T00:48:48;8.27;;;2.87;;
38901;SDS011;24661;53.566;9.910;2023-07-02T00:51:17;6.57;;;2.97;;
38901;SDS011;24661;53.566;9.910;2023-07-02T00:53:45;7.93;;;3.00;;
38901;SDS011;24661;53.566;9.910;2023-07-02T00:56:11;6.60;;;2.63;;
38901;SDS011;24661;53.566;9.910;2023-07-02T00:58:37;8.60;;;3.40;;
38901;SDS011;24661;53.566;9.910;2023-07-02T01:01:05;5.47;;;2.67;;
38901;SDS011;24661;53.566;9.910;2023-07-02T01:03:30;6.10;;;2.73;;
38901;SDS011;24661;53.566;9.910;2023-07-02T01:05:58;4.70;;;3.03;;
38901;SDS011;24661;53.566;9.910;2023-07-02T01:08:26;6.13;;;3.00;;
38901;SDS011;24661;53.566;9.910;2023-07-02T01:10:52;6.37;;;3.00;;
38901;SDS011;24661;53.566;9.910;2023-07-02T01:13:19;9.30;;;3.57;;
38901;SDS011;24661;53.566;9.910;2023-07-02T01:15:46;11.40;;;3.30;;
38901;SDS011;24661;53.566;9.910;2023-07-02T01:18:13;10.00;;;3.03;;
38901;SDS011;24661;53.566;9.910;2023-07-02T01:20:40;6.30;;;3.07;;
38901;SDS011;24661;53.566;9.910;2023-07-02T01:23:06;7.27;;;3.10;;
38901;SDS011;24661;53.566;9.910;2023-07-02T01:25:34;5.97;;;3.10;;
38901;SDS011;24661;53.566;9.910;2023-07-02T01:28:01;10.17;;;3.07;;
38901;SDS011;24661;53.566;9.910;2023-07-02T01:30:27;5.73;;;3.00;;
38901;SDS011;24661;53.566;9.910;2023-07-02T01:32:53;8.73;;;3.40;;
38901;SDS011;24661;53.566;9.910;2023-07-02T01:35:18;5.10;;;2.60;;
38901;SDS011;24661;53.566;9.910;2023-07-02T01:37:44;6.53;;;2.67;;
38901;SDS011;24661;53.566;9.910;2023-07-02T01:40:10;6.93;;;3.40;;
38901;SDS011;24661;53.566;9.910;2023-07-02T01:42:35;9.00;;;3.43;;
38901;SDS011;24661;53.566;9.910;2023-07-02T01:45:01;10.57;;;4.50;;
38901;SDS011;24661;53.566;9.910;2023-07-02T01:47:27;8.23;;;3.43;;
38901;SDS011;24661;53.566;9.910;2023-07-02T01:49:52;5.13;;;2.93;;
38901;SDS011;24661;53.566;9.910;2023-07-02T01:52:18;10.80;;;3.60;;
38901;SDS011;24661;53.566;9.910;2023-07-02T01:54:43;6.63;;;3.57;;
38901;SDS011;24661;53.566;9.910;2023-07-02T01:57:10;10.20;;;2.90;;
38901;SDS011;24661;53.566;9.910;2023-07-02T01:59:35;8.10;;;3.73;;
38901;SDS011;24661;53.566;9.910;2023-07-02T02:02:01;9.47;;;3.60;;
38901;SDS011;24661;53.566;9.910;2023-07-02T02:04:27;8.00;;;3.40;;
38901;SDS011;24661;53.566;9.910;2023-07-02T02:06:52;8.33;;;3.57;;
38901;SDS011;24661;53.566;9.910;2023-07-02T02:09:18;6.67;;;3.30;;
38901;SDS011;24661;53.566;9.910;2023-07-02T02:11:45;4.83;;;3.20;;
38901;SDS011;24661;53.566;9.910;2023-07-02T02:14:15;8.03;;;3.97;;
38901;SDS011;24661;53.566;9.910;2023-07-02T02:16:40;11.13;;;5.00;;
38901;SDS011;24661;53.566;9.910;2023-07-02T02:19:07;3.70;;;3.37;;
38901;SDS011;24661;53.566;9.910;2023-07-02T02:21:32;9.93;;;3.63;;
38901;SDS011;24661;53.566;9.910;2023-07-02T02:23:58;8.43;;;3.30;;
38901;SDS011;24661;53.566;9.910;2023-07-02T02:26:23;8.73;;;3.70;;
38901;SDS011;24661;53.566;9.910;2023-07-02T02:28:50;5.67;;;3.47;;
38901;SDS011;24661;53.566;9.910;2023-07-02T02:31:16;9.20;;;4.00;;
38901;SDS011;24661;53.566;9.910;2023-07-02T02:33:42;6.87;;;3.87;;
38901;SDS011;24661;53.566;9.910;2023-07-02T02:36:08;9.67;;;4.53;;
38901;SDS011;24661;53.566;9.910;2023-07-02T02:38:34;8.03;;;3.97;;
38901;SDS011;24661;53.566;9.910;2023-07-02T02:41:00;9.43;;;4.00;;
38901;SDS011;24661;53.566;9.910;2023-07-02T02:43:27;12.37;;;5.10;;
38901;SDS011;24661;53.566;9.910;2023-07-02T02:45:52;9.43;;;4.30;;
38901;SDS011;24661;53.566;9.910;2023-07-02T02:48:18;6.83;;;4.30;;
38901;SDS011;24661;53.566;9.910;2023-07-02T02:50:45;9.57;;;4.33;;
38901;SDS011;24661;53.566;9.910;2023-07-02T02:53:10;13.07;;;4.57;;
38901;SDS011;24661;53.566;9.910;2023-07-02T02:55:36;7.07;;;3.70;;
38901;SDS011;24661;53.566;9.910;2023-07-02T02:58:02;9.77;;;4.17;;
38901;SDS011;24661;53.566;9.910;2023-07-02T03:00:28;5.17;;;3.90;;
38901;SDS011;24661;53.566;9.910;2023-07-02T03:02:54;8.37;;;5.03;;
38901;SDS011;24661;53.566;9.910;2023-07-02T03:05:20;8.73;;;4.63;;
38901;SDS011;24661;53.566;9.910;2023-07-02T03:07:46;8.13;;;4.87;;
38901;SDS011;24661;53.566;9.910;2023-07-02T03:10:12;10.60;;;4.60;;
38901;SDS011;24661;53.566;9.910;2023-07-02T03:12:37;7.60;;;4.13;;
38901;SDS011;24661;53.566;9.910;2023-07-02T03:15:03;12.07;;;4.77;;
38901;SDS011;24661;53.566;9.910;2023-07-02T03:17:29;11.93;;;4.63;;
38901;SDS011;24661;53.566;9.910;2023-07-02T03:19:54;9.43;;;4.67;;
38901;SDS011;24661;53.566;9.910;2023-07-02T03:22:20;9.80;;;4.40;;
38901;SDS011;24661;53.566;9.910;2023-07-02T03:24:47;6.60;;;4.10;;
38901;SDS011;24661;53.566;9.910;2023-07-02T03:27:12;9.37;;;4.73;;
38901;SDS011;24661;53.566;9.910;2023-07-02T03:29:38;11.23;;;4.40;;
38901;SDS011;24661;53.566;9.910;2023-07-02T03:32:03;11.27;;;5.70;;
38901;SDS011;24661;53.566;9.910;2023-07-02T03:34:29;11.47;;;5.03;;
38901;SDS011;24661;53.566;9.910;2023-07-02T03:36:55;9.37;;;4.50;;
38901;SDS011;24661;53.566;9.910;2023-07-02T03:39:21;7.17;;;3.60;;
38901;SDS011;24661;53.566;9.910;2023-07-02T03:41:46;11.10;;;4.57;;
38901;SDS011;24661;53.566;9.910;2023-07-02T03:44:12;11.03;;;4.53;;
38901;SDS011;24661;53.566;9.910;2023-07-02T03:46:37;9.53;;;4.47;;
38901;SDS011;24661;53.566;9.910;2023-07-02T03:49:03;8.43;;;4.20;;
38901;SDS011;24661;53.566;9.910;2023-07-02T03:51:29;11.37;;;5.00;;
38901;SDS011;24661;53.566;9.910;2023-07-02T03:53:55;15.10;;;6.80;;
38901;SDS011;24661;53.566;9.910;2023-07-02T03:56:21;12.63;;;4.50;;
38901;SDS011;24661;53.566;9.910;2023-07-02T03:58:46;11.43;;;5.27;;
38901;SDS011;24661;53.566;9.910;2023-07-02T04:01:12;13.03;;;4.70;;
38901;SDS011;24661;53.566;9.910;2023-07-02T04:03:38;15.17;;;4.77;;
38901;SDS011;24661;53.566;9.910;2023-07-02T04:06:04;10.63;;;4.03;;
38901;SDS011;24661;53.566;9.910;2023-07-02T04:08:31;10.03;;;4.53;;
38901;SDS011;24661;53.566;9.910;2023-07-02T04:10:57;10.47;;;4.63;;
38901;SDS011;24661;53.566;9.910;2023-07-02T04:13:22;13.23;;;4.43;;
38901;SDS011;24661;53.566;9.910;2023-07-02T04:15:48;13.23;;;4.83;;
38901;SDS011;24661;53.566;9.910;2023-07-02T04:18:14;12.37;;;4.70;;
38901;SDS011;24661;53.566;9.910;2023-07-02T04:20:39;11.93;;;5.03;;
38901;SDS011;24661;53.566;9.910;2023-07-02T04:23:05;11.80;;;4.90;;
38901;SDS011;24661;53.566;9.910;2023-07-02T04:25:31;11.40;;;4.43;;
38901;SDS011;24661;53.566;9.910;2023-07-02T04:27:57;16.83;;;5.13;;
38901;SDS011;24661;53.566;9.910;2023-07-02T04:30:23;10.37;;;5.30;;
38901;SDS011;24661;53.566;9.910;2023-07-02T04:32:50;14.17;;;5.63;;
38901;SDS011;24661;53.566;9.910;2023-07-02T04:35:16;12.43;;;5.37;;
38901;SDS011;24661;53.566;9.910;2023-07-02T04:37:41;16.50;;;5.50;;
38901;SDS011;24661;53.566;9.910;2023-07-02T04:40:07;17.07;;;6.13;;
38901;SDS011;24661;53.566;9.910;2023-07-02T04:42:36;16.13;;;5.23;;
38901;SDS011;24661;53.566;9.910;2023-07-02T04:45:06;12.03;;;5.63;;
38901;SDS011;24661;53.566;9.910;2023-07-02T04:47:33;12.07;;;5.17;;
38901;SDS011;24661;53.566;9.910;2023-07-02T04:49:59;12.90;;;5.50;;
38901;SDS011;24661;53.566;9.910;2023-07-02T04:52:25;11.80;;;5.20;;
38901;SDS011;24661;53.566;9.910;2023-07-02T04:54:52;19.23;;;6.10;;
38901;SDS011;24661;53.566;9.910;2023-07-02T04:57:18;16.20;;;5.90;;
38901;SDS011;24661;53.566;9.910;2023-07-02T04:59:43;20.60;;;5.97;;
38901;SDS011;24661;53.566;9.910;2023-07-02T05:02:09;18.53;;;5.60;;
38901;SDS011;24661;53.566;9.910;2023-07-02T05:04:35;15.93;;;6.13;;
38901;SDS011;24661;53.566;9.910;2023-07-02T05:07:03;13.03;;;5.27;;
38901;SDS011;24661;53.566;9.910;2023-07-02T05:09:29;17.63;;;6.00;;
38901;SDS011;24661;53.566;9.910;2023-07-02T05:11:55;16.07;;;6.23;;
38901;SDS011;24661;53.566;9.910;2023-07-02T05:14:21;17.33;;;8.37;;
38901;SDS011;24661;53.566;9.910;2023-07-02T05:16:47;19.70;;;9.80;;
38901;SDS011;24661;53.566;9.910;2023-07-02T05:19:13;15.17;;;6.60;;
38901;SDS011;24661;53.566;9.910;2023-07-02T05:21:39;21.03;;;6.20;;
38901;SDS011;24661;53.566;9.910;2023-07-02T05:24:04;19.50;;;6.37;;
38901;SDS011;24661;53.566;9.910;2023-07-02T05:26:30;20.07;;;7.20;;
38901;SDS011;24661;53.566;9.910;2023-07-02T05:28:56;19.27;;;7.03;;
38901;SDS011;24661;53.566;9.910;2023-07-02T05:31:21;23.70;;;6.90;;
38901;SDS011;24661;53.566;9.910;2023-07-02T05:33:47;14.03;;;5.27;;
38901;SDS011;24661;53.566;9.910;2023-07-02T05:36:12;16.30;;;6.70;;
38901;SDS011;24661;53.566;9.910;2023-07-02T05:38:38;17.23;;;6.73;;
38901;SDS011;24661;53.566;9.910;2023-07-02T05:41:04;14.10;;;6.83;;
38901;SDS011;24661;53.566;9.910;2023-07-02T05:43:29;15.17;;;6.10;;
38901;SDS011;24661;53.566;9.910;2023-07-02T05:45:57;19.90;;;6.27;;
38901;SDS011;24661;53.566;9.910;2023-07-02T05:48:25;19.20;;;6.07;;
38901;SDS011;24661;53.566;9.910;2023-07-02T05:50:51;28.73;;;7.03;;
38901;SDS011;24661;53.566;9.910;2023-07-02T05:53:19;14.93;;;6.40;;
38901;SDS011;24661;53.566;9.910;2023-07-02T05:55:45;25.03;;;7.67;;
38901;SDS011;24661;53.566;9.910;2023-07-02T05:58:12;20.47;;;6.53;;
38901;SDS011;24661;53.566;9.910;2023-07-02T06:00:37;24.90;;;7.33;;
38901;SDS011;24661;53.566;9.910;2023-07-02T06:03:04;24.20;;;7.40;;
38901;SDS011;24661;53.566;9.910;2023-07-02T06:05:30;20.83;;;7.13;;
38901;SDS011;24661;53.566;9.910;2023-07-02T06:07:56;16.10;;;6.70;;
38901;SDS011;24661;53.566;9.910;2023-07-02T06:10:22;24.90;;;7.67;;
38901;SDS011;24661;53.566;9.910;2023-07-02T06:12:48;14.93;;;6.73;;
38901;SDS011;24661;53.566;9.910;2023-07-02T06:15:14;17.90;;;7.17;;
38901;SDS011;24661;53.566;9.910;2023-07-02T06:17:39;19.83;;;7.47;;
38901;SDS011;24661;53.566;9.910;2023-07-02T06:20:05;19.00;;;6.80;;
38901;SDS011;24661;53.566;9.910;2023-07-02T06:22:31;22.00;;;8.20;;
38901;SDS011;24661;53.566;9.910;2023-07-02T06:24:57;22.67;;;7.13;;
38901;SDS011;24661;53.566;9.910;2023-07-02T06:27:23;20.60;;;7.80;;
38901;SDS011;24661;53.566;9.910;2023-07-02T06:29:48;24.43;;;7.50;;
38901;SDS011;24661;53.566;9.910;2023-07-02T06:32:15;24.60;;;8.00;;
38901;SDS011;24661;53.566;9.910;2023-07-02T06:34:41;18.90;;;8.10;;
38901;SDS011;24661;53.566;9.910;2023-07-02T06:37:06;19.10;;;7.57;;
38901;SDS011;24661;53.566;9.910;2023-07-02T06:39:32;19.30;;;7.87;;
38901;SDS011;24661;53.566;9.910;2023-07-02T06:41:57;21.10;;;8.47;;
38901;SDS011;24661;53.566;9.910;2023-07-02T06:44:23;20.87;;;8.00;;
38901;SDS011;24661;53.566;9.910;2023-07-02T06:46:49;24.37;;;7.40;;
38901;SDS011;24661;53.566;9.910;2023-07-02T06:49:14;27.30;;;8.27;;
38901;SDS011;24661;53.566;9.910;2023-07-02T06:51:40;18.40;;;7.10;;
38901;SDS011;24661;53.566;9.910;2023-07-02T06:54:06;23.03;;;8.60;;
38901;SDS011;24661;53.566;9.910;2023-07-02T06:56:32;26.13;;;8.90;;
38901;SDS011;24661;53.566;9.910;2023-07-02T06:58:59;22.87;;;8.27;;
38901;SDS011;24661;53.566;9.910;2023-07-02T07:01:25;24.00;;;8.73;;
38901;SDS011;24661;53.566;9.910;2023-07-02T07:03:50;25.33;;;7.97;;
38901;SDS011;24661;53.566;9.910;2023-07-02T07:06:16;29.47;;;9.07;;
38901;SDS011;24661;53.566;9.910;2023-07-02T07:08:41;22.87;;;7.50;;
38901;SDS011;24661;53.566;9.910;2023-07-02T07:11:07;21.13;;;8.53;;
38901;SDS011;24661;53.566;9.910;2023-07-02T07:13:32;33.70;;;8.43;;
38901;SDS011;24661;53.566;9.910;2023-07-02T07:15:58;20.30;;;8.23;;
38901;SDS011;24661;53.566;9.910;2023-07-02T07:18:23;24.67;;;9.13;;
38901;SDS011;24661;53.566;9.910;2023-07-02T07:20:49;19.07;;;7.07;;
38901;SDS011;24661;53.566;9.910;2023-07-02T07:23:15;22.30;;;8.53;;
38901;SDS011;24661;53.566;9.910;2023-07-02T07:25:42;21.70;;;7.20;;
38901;SDS011;24661;53.566;9.910;2023-07-02T07:28:08;24.63;;;7.53;;
38901;SDS011;24661;53.566;9.910;2023-07-02T07:30:37;20.27;;;7.57;;
38901;SDS011;24661;53.566;9.910;2023-07-02T07:33:02;17.57;;;7.67;;
38901;SDS011;24661;53.566;9.910;2023-07-02T07:35:28;19.90;;;6.87;;
38901;SDS011;24661;53.566;9.910;2023-07-02T07:37:53;21.87;;;8.60;;
38901;SDS011;24661;53.566;9.910;2023-07-02T07:40:19;18.33;;;6.87;;
38901;SDS011;24661;53.566;9.910;2023-07-02T07:42:44;16.83;;;6.80;;
38901;SDS011;24661;53.566;9.910;2023-07-02T07:45:10;18.67;;;7.40;;
38901;SDS011;24661;53.566;9.910;2023-07-02T07:47:36;24.27;;;7.77;;
38901;SDS011;24661;53.566;9.910;2023-07-02T07:50:02;20.53;;;7.17;;
38901;SDS011;24661;53.566;9.910;2023-07-02T07:52:33;19.50;;;7.80;;
38901;SDS011;24661;53.566;9.910;2023-07-02T07:54:59;21.03;;;7.60;;
38901;SDS011;24661;53.566;9.910;2023-07-02T07:57:25;20.63;;;6.43;;
38901;SDS011;24661;53.566;9.910;2023-07-02T07:59:50;15.97;;;7.07;;
38901;SDS011;24661;53.566;9.910;2023-07-02T08:02:16;22.87;;;8.37;;
38901;SDS011;24661;53.566;9.910;2023-07-02T08:04:41;14.80;;;7.17;;
38901;SDS011;24661;53.566;9.910;2023-07-02T08:07:07;19.00;;;6.77;;
38901;SDS011;24661;53.566;9.910;2023-07-02T08:09:34;17.23;;;6.27;;
38901;SDS011;24661;53.566;9.910;2023-07-02T08:11:59;14.27;;;6.13;;
38901;SDS011;24661;53.566;9.910;2023-07-02T08:14:25;15.30;;;7.20;;
38901;SDS011;24661;53.566;9.910;2023-07-02T08:16:50;15.63;;;6.60;;
38901;SDS011;24661;53.566;9.910;2023-07-02T08:19:16;16.90;;;5.83;;
38901;SDS011;24661;53.566;9.910;2023-07-02T08:21:42;19.00;;;5.70;;
38901;SDS011;24661;53.566;9.910;2023-07-02T08:24:07;18.63;;;5.80;;
38901;SDS011;24661;53.566;9.910;2023-07-02T08:26:33;18.10;;;6.17;;
38901;SDS011;24661;53.566;9.910;2023-07-02T08:28:59;11.13;;;5.13;;
38901;SDS011;24661;53.566;9.910;2023-07-02T08:31:24;13.57;;;5.43;;
38901;SDS011;24661;53.566;9.910;2023-07-02T08:33:50;13.20;;;5.40;;
38901;SDS011;24661;53.566;9.910;2023-07-02T08:36:15;21.77;;;9.77;;
38901;SDS011;24661;53.566;9.910;2023-07-02T08:38:41;16.83;;;6.83;;
38901;SDS011;24661;53.566;9.910;2023-07-02T08:41:08;12.27;;;5.07;;
38901;SDS011;24661;53.566;9.910;2023-07-02T08:43:34;15.27;;;5.57;;
38901;SDS011;24661;53.566;9.910;2023-07-02T08:46:01;11.90;;;5.13;;
38901;SDS011;24661;53.566;9.910;2023-07-02T08:48:27;14.70;;;5.73;;
38901;SDS011;24661;53.566;9.910;2023-07-02T08:50:54;18.87;;;4.83;;
38901;SDS011;24661;53.566;9.910;2023-07-02T08:53:21;13.10;;;4.87;;
38901;SDS011;24661;53.566;9.910;2023-07-02T08:55:54;16.97;;;5.00;;
38901;SDS011;24661;53.566;9.910;2023-07-02T08:58:23;10.27;;;4.90;;
38901;SDS011;24661;53.566;9.910;2023-07-02T09:03:37;10.27;;;4.53;;
38901;SDS011;24661;53.566;9.910;2023-07-02T09:06:12;16.03;;;5.40;;
38901;SDS011;24661;53.566;9.910;2023-07-02T09:08:38;14.00;;;5.10;;
38901;SDS011;24661;53.566;9.910;2023-07-02T09:11:13;14.30;;;4.80;;
38901;SDS011;24661;53.566;9.910;2023-07-02T09:13:48;13.50;;;4.73;;
38901;SDS011;24661;53.566;9.910;2023-07-02T09:18:57;13.60;;;5.03;;
38901;SDS011;24661;53.566;9.910;2023-07-02T09:21:42;10.47;;;4.13;;
38901;SDS011;24661;53.566;9.910;2023-07-02T09:24:21;16.73;;;4.93;;
38901;SDS011;24661;53.566;9.910;2023-07-02T09:26:55;23.10;;;5.30;;
38901;SDS011;24661;53.566;9.910;2023-07-02T09:29:23;19.07;;;5.50;;
38901;SDS011;24661;53.566;9.910;2023-07-02T09:31:49;15.40;;;5.50;;
38901;SDS011;24661;53.566;9.910;2023-07-02T09:34:15;12.07;;;5.10;;
38901;SDS011;24661;53.566;9.910;2023-07-02T09:36:41;18.20;;;5.93;;
38901;SDS011;24661;53.566;9.910;2023-07-02T09:39:11;13.40;;;5.07;;
38901;SDS011;24661;53.566;9.910;2023-07-02T09:41:44;13.77;;;5.13;;
38901;SDS011;24661;53.566;9.910;2023-07-02T09:44:13;11.33;;;5.10;;
38901;SDS011;24661;53.566;9.910;2023-07-02T09:46:43;14.77;;;5.33;;
38901;SDS011;24661;53.566;9.910;2023-07-02T09:49:14;17.40;;;5.23;;
38901;SDS011;24661;53.566;9.910;2023-07-02T09:51:42;14.00;;;4.57;;
38901;SDS011;24661;53.566;9.910;2023-07-02T09:54:08;11.47;;;4.93;;
38901;SDS011;24661;53.566;9.910;2023-07-02T09:56:35;12.10;;;4.63;;
38901;SDS011;24661;53.566;9.910;2023-07-02T09:59:00;14.07;;;4.30;;
38901;SDS011;24661;53.566;9.910;2023-07-02T10:01:26;13.93;;;3.90;;
38901;SDS011;24661;53.566;9.910;2023-07-02T10:03:51;18.30;;;5.33;;
38901;SDS011;24661;53.566;9.910;2023-07-02T10:06:17;19.27;;;4.10;;
38901;SDS011;24661;53.566;9.910;2023-07-02T10:08:53;13.97;;;5.63;;
38901;SDS011;24661;53.566;9.910;2023-07-02T10:11:32;12.97;;;5.50;;
38901;SDS011;24661;53.566;9.910;2023-07-02T10:14:00;10.63;;;4.33;;
38901;SDS011;24661;53.566;9.910;2023-07-02T10:16:26;13.27;;;4.43;;
38901;SDS011;24661;53.566;9.910;2023-07-02T10:18:53;11.37;;;5.63;;
38901;SDS011;24661;53.566;9.910;2023-07-02T10:21:19;11.57;;;4.47;;
38901;SDS011;24661;53.566;9.910;2023-07-02T10:23:46;15.57;;;4.97;;
38901;SDS011;24661;53.566;9.910;2023-07-02T10:26:13;12.13;;;4.60;;
38901;SDS011;24661;53.566;9.910;2023-07-02T10:28:43;10.77;;;4.10;;
38901;SDS011;24661;53.566;9.910;2023-07-02T10:31:21;10.10;;;4.20;;
38901;SDS011;24661;53.566;9.910;2023-07-02T10:33:47;11.50;;;4.37;;
38901;SDS011;24661;53.566;9.910;2023-07-02T10:36:23;11.90;;;4.10;;
38901;SDS011;24661;53.566;9.910;2023-07-02T10:38:49;15.03;;;3.87;;
38901;SDS011;24661;53.566;9.910;2023-07-02T10:41:23;13.83;;;4.57;;
38901;SDS011;24661;53.566;9.910;2023-07-02T10:43:53;9.63;;;3.93;;
38901;SDS011;24661;53.566;9.910;2023-07-02T10:46:19;11.80;;;4.20;;
38901;SDS011;24661;53.566;9.910;2023-07-02T10:48:55;10.07;;;4.40;;
38901;SDS011;24661;53.566;9.910;2023-07-02T10:51:21;14.23;;;4.00;;
38901;SDS011;24661;53.566;9.910;2023-07-02T10:54:02;13.27;;;4.27;;
38901;SDS011;24661;53.566;9.910;2023-07-02T10:56:30;11.77;;;3.87;;
38901;SDS011;24661;53.566;9.910;2023-07-02T10:58:56;10.97;;;4.00;;
38901;SDS011;24661;53.566;9.910;2023-07-02T11:01:25;11.03;;;3.90;;
38901;SDS011;24661;53.566;9.910;2023-07-02T11:03:58;12.17;;;3.83;;
38901;SDS011;24661;53.566;9.910;2023-07-02T11:06:29;13.60;;;3.70;;
38901;SDS011;24661;53.566;9.910;2023-07-02T11:08:56;13.93;;;3.93;;
38901;SDS011;24661;53.566;9.910;2023-07-02T11:11:22;14.10;;;3.67;;
38901;SDS011;24661;53.566;9.910;2023-07-02T11:13:49;6.20;;;2.80;;
38901;SDS011;24661;53.566;9.910;2023-07-02T11:16:27;10.70;;;3.43;;
38901;SDS011;24661;53.566;9.910;2023-07-02T11:19:05;11.67;;;4.17;;
38901;SDS011;24661;53.566;9.910;2023-07-02T11:21:35;12.27;;;3.97;;
38901;SDS011;24661;53.566;9.910;2023-07-02T11:24:05;11.43;;;3.47;;
38901;SDS011;24661;53.566;9.910;2023-07-02T11:26:37;10.50;;;4.97;;
38901;SDS011;24661;53.566;9.910;2023-07-02T11:29:03;9.93;;;3.90;;
38901;SDS011;24661;53.566;9.910;2023-07-02T11:31:33;8.73;;;3.73;;
38901;SDS011;24661;53.566;9.910;2023-07-02T11:33:58;8.90;;;3.57;;
38901;SDS011;24661;53.566;9.910;2023-07-02T11:36:24;11.27;;;3.80;;
38901;SDS011;24661;53.566;9.910;2023-07-02T11:38:50;5.37;;;2.50;;
38901;SDS011;24661;53.566;9.910;2023-07-02T11:41:16;9.17;;;3.20;;
38901;SDS011;24661;53.566;9.910;2023-07-02T11:43:42;8.70;;;3.27;;
38901;SDS011;24661;53.566;9.910;2023-07-02T11:46:08;9.00;;;2.63;;
38901;SDS011;24661;53.566;9.910;2023-07-02T11:48:34;8.03;;;2.90;;
38901;SDS011;24661;53.566;9.910;2023-07-02T11:50:59;5.47;;;2.90;;
38901;SDS011;24661;53.566;9.910;2023-07-02T11:53:25;7.67;;;2.90;;
38901;SDS011;24661;53.566;9.910;2023-07-02T11:55:50;10.37;;;4.67;;
38901;SDS011;24661;53.566;9.910;2023-07-02T11:58:16;6.30;;;2.23;;
38901;SDS011;24661;53.566;9.910;2023-07-02T12:00:42;7.10;;;2.97;;
38901;SDS011;24661;53.566;9.910;2023-07-02T12:03:08;11.47;;;3.30;;
38901;SDS011;24661;53.566;9.910;2023-07-02T12:05:34;8.20;;;3.00;;
38901;SDS011;24661;53.566;9.910;2023-07-02T12:08:01;5.93;;;2.33;;
38901;SDS011;24661;53.566;9.910;2023-07-02T12:10:27;8.63;;;2.70;;
38901;SDS011;24661;53.566;9.910;2023-07-02T12:12:52;9.47;;;3.33;;
38901;SDS011;24661;53.566;9.910;2023-07-02T12:15:18;6.37;;;2.67;;
38901;SDS011;24661;53.566;9.910;2023-07-02T12:17:43;10.77;;;3.10;;
38901;SDS011;24661;53.566;9.910;2023-07-02T12:20:09;9.93;;;2.87;;
38901;SDS011;24661;53.566;9.910;2023-07-02T12:22:35;7.43;;;2.60;;
38901;SDS011;24661;53.566;9.910;2023-07-02T12:25:00;7.73;;;2.83;;
38901;SDS011;24661;53.566;9.910;2023-07-02T12:27:26;10.10;;;3.97;;
38901;SDS011;24661;53.566;9.910;2023-07-02T12:29:52;6.17;;;2.73;;
38901;SDS011;24661;53.566;9.910;2023-07-02T12:32:18;10.97;;;4.43;;
38901;SDS011;24661;53.566;9.910;2023-07-02T12:34:43;7.70;;;3.83;;
38901;SDS011;24661;53.566;9.910;2023-07-02T12:37:09;4.87;;;2.77;;
38901;SDS011;24661;53.566;9.910;2023-07-02T12:39:34;7.97;;;3.30;;
38901;SDS011;24661;53.566;9.910;2023-07-02T12:42:00;9.13;;;3.00;;
38901;SDS011;24661;53.566;9.910;2023-07-02T12:44:26;11.50;;;3.20;;
38901;SDS011;24661;53.566;9.910;2023-07-02T12:46:51;6.37;;;2.20;;
38901;SDS011;24661;53.566;9.910;2023-07-02T12:49:17;10.03;;;3.20;;
38901;SDS011;24661;53.566;9.910;2023-07-02T12:51:42;7.60;;;2.27;;
38901;SDS011;24661;53.566;9.910;2023-07-02T12:54:08;7.97;;;2.77;;
38901;SDS011;24661;53.566;9.910;2023-07-02T12:56:33;8.77;;;2.60;;
38901;SDS011;24661;53.566;9.910;2023-07-02T12:59:01;8.77;;;2.47;;
38901;SDS011;24661;53.566;9.910;2023-07-02T13:01:27;8.53;;;2.50;;
38901;SDS011;24661;53.566;9.910;2023-07-02T13:03:52;9.90;;;2.80;;
38901;SDS011;24661;53.566;9.910;2023-07-02T13:06:18;7.50;;;3.60;;
38901;SDS011;24661;53.566;9.910;2023-07-02T13:08:44;6.50;;;2.17;;
38901;SDS011;24661;53.566;9.910;2023-07-02T13:11:09;7.67;;;2.67;;
38901;SDS011;24661;53.566;9.910;2023-07-02T13:13:35;6.00;;;2.10;;
38901;SDS011;24661;53.566;9.910;2023-07-02T13:16:03;9.63;;;2.77;;
38901;SDS011;24661;53.566;9.910;2023-07-02T13:18:29;8.60;;;2.43;;
38901;SDS011;24661;53.566;9.910;2023-07-02T13:20:55;8.33;;;2.43;;
38901;SDS011;24661;53.566;9.910;2023-07-02T13:23:20;5.57;;;2.17;;
38901;SDS011;24661;53.566;9.910;2023-07-02T13:25:46;5.47;;;2.10;;
38901;SDS011;24661;53.566;9.910;2023-07-02T13:28:11;4.53;;;2.20;;
38901;SDS011;24661;53.566;9.910;2023-07-02T13:30:37;6.70;;;1.80;;
38901;SDS011;24661;53.566;9.910;2023-07-02T13:33:03;9.07;;;2.40;;
38901;SDS011;24661;53.566;9.910;2023-07-02T13:35:28;13.47;;;2.90;;
38901;SDS011;24661;53.566;9.910;2023-07-02T13:37:54;7.43;;;2.23;;
38901;SDS011;24661;53.566;9.910;2023-07-02T13:40:20;6.77;;;2.47;;
38901;SDS011;24661;53.566;9.910;2023-07-02T13:42:45;9.00;;;2.30;;
38901;SDS011;24661;53.566;9.910;2023-07-02T13:45:11;10.47;;;2.50;;
38901;SDS011;24661;53.566;9.910;2023-07-02T13:47:37;7.73;;;2.07;;
38901;SDS011;24661;53.566;9.910;2023-07-02T13:50:03;5.57;;;3.00;;
38901;SDS011;24661;53.566;9.910;2023-07-02T13:52:29;8.40;;;2.30;;
38901;SDS011;24661;53.566;9.910;2023-07-02T13:54:55;8.60;;;2.37;;
38901;SDS011;24661;53.566;9.910;2023-07-02T13:57:21;7.77;;;1.93;;
38901;SDS011;24661;53.566;9.910;2023-07-02T13:59:47;8.33;;;3.27;;
38901;SDS011;24661;53.566;9.910;2023-07-02T14:02:12;10.10;;;4.17;;
38901;SDS011;24661;53.566;9.910;2023-07-02T14:04:39;6.40;;;2.10;;
38901;SDS011;24661;53.566;9.910;2023-07-02T14:07:04;7.23;;;3.20;;
38901;SDS011;24661;53.566;9.910;2023-07-02T14:09:30;4.87;;;2.40;;
38901;SDS011;24661;53.566;9.910;2023-07-02T14:11:56;8.30;;;2.13;;
38901;SDS011;24661;53.566;9.910;2023-07-02T14:14:22;9.00;;;2.30;;
38901;SDS011;24661;53.566;9.910;2023-07-02T14:16:47;10.67;;;2.50;;
38901;SDS011;24661;53.566;9.910;2023-07-02T14:19:13;7.63;;;2.47;;
38901;SDS011;24661;53.566;9.910;2023-07-02T14:21:40;10.67;;;6.00;;
38901;SDS011;24661;53.566;9.910;2023-07-02T14:24:05;7.47;;;2.70;;
38901;SDS011;24661;53.566;9.910;2023-07-02T14:26:31;6.60;;;2.00;;
38901;SDS011;24661;53.566;9.910;2023-07-02T14:28:57;8.60;;;2.60;;
38901;SDS011;24661;53.566;9.910;2023-07-02T14:31:23;7.90;;;2.93;;
38901;SDS011;24661;53.566;9.910;2023-07-02T14:33:49;6.70;;;2.60;;
38901;SDS011;24661;53.566;9.910;2023-07-02T14:36:14;19.73;;;2.87;;
38901;SDS011;24661;53.566;9.910;2023-07-02T14:38:40;6.57;;;3.07;;
38901;SDS011;24661;53.566;9.910;2023-07-02T14:41:06;7.93;;;2.33;;
38901;SDS011;24661;53.566;9.910;2023-07-02T14:43:31;9.40;;;2.20;;